Time;durP1;ratioP1;P1;durP2;ratioP2;P2;SDS_P1;SDS_P2;PMS_P1;PMS_P2;Temp;Humidity;BMP_temperature;BMP_pressure;BME280_temperature;BME280_humidity;BME280_pressure;Samples;Min_cycle;Max_cycle;Signal;HPM_P1;HPM_P2
2022/10/27 00:01:42;;;;;;;11.97;9.15;;;;;;;13.83;100.00;100968.66;2814314;82;21511;-89
2022/10/27 00:05:45;;;;;;;13.50;9.23;;;;;;;13.80;100.00;100968.45;2792786;82;21058;-88
2022/10/27 00:09:47;;;;;;;12.50;9.55;;;;;;;13.70;100.00;100976.88;2776528;81;21630;-88
2022/10/27 00:13:48;;;;;;;14.90;9.50;;;;;;;13.68;100.00;100978.36;2783702;81;21046;-87
2022/10/27 00:17:49;;;;;;;15.60;9.53;;;;;;;13.57;100.00;100975.73;2790521;82;21080;-88
2022/10/27 00:21:51;;;;;;;12.65;8.98;;;;;;;13.48;100.00;100978.68;2770747;82;21668;-88
2022/10/27 00:25:54;;;;;;;11.80;8.88;;;;;;;13.34;100.00;100980.27;2776691;82;21004;-88
2022/10/27 00:29:56;;;;;;;9.93;8.60;;;;;;;13.28;100.00;100986.49;2779691;82;21569;-88
2022/10/27 00:33:57;;;;;;;12.07;9.08;;;;;;;13.32;100.00;100984.89;2836816;80;20986;-88
2022/10/27 00:37:58;;;;;;;14.20;8.58;;;;;;;13.33;100.00;100995.94;2863180;80;20989;-88
2022/10/27 00:41:59;;;;;;;9.45;6.97;;;;;;;13.35;100.00;100997.53;2819796;82;21069;-87
2022/10/27 00:46:35;;;;;;;9.23;6.92;;;;;;;13.42;100.00;101004.55;2787933;81;20995;-87
2022/10/27 00:50:37;;;;;;;12.00;5.93;;;;;;;13.48;100.00;101000.06;2836363;81;21655;-88
2022/10/27 00:54:40;;;;;;;11.50;5.65;;;;;;;13.53;100.00;101002.36;2793313;80;21033;-88
2022/10/27 00:58:44;;;;;;;9.18;4.33;;;;;;;13.60;100.00;101006.71;2828716;80;21555;-88
2022/10/27 01:02:46;;;;;;;6.10;4.72;;;;;;;13.66;100.00;101012.87;2823927;81;20994;-88
2022/10/27 01:06:47;;;;;;;7.87;5.20;;;;;;;13.72;100.00;101020.37;2827116;81;21036;-88
2022/10/27 01:10:49;;;;;;;5.97;4.40;;;;;;;13.73;100.00;101020.72;2823338;81;20987;-88
2022/10/27 01:14:51;;;;;;;8.65;5.03;;;;;;;13.70;100.00;101026.34;2821930;81;21014;-88
2022/10/27 01:19:07;;;;;;;8.23;3.33;;;;;;;13.63;100.00;101025.99;2792244;82;21562;-88
2022/10/27 01:23:23;;;;;;;5.37;4.00;;;;;;;13.64;100.00;101024.19;2768293;82;21030;-88
2022/10/27 01:27:55;;;;;;;5.28;3.52;;;;;;;13.65;100.00;101031.23;2814768;82;21571;-87
2022/10/27 01:32:14;;;;;;;5.50;4.40;;;;;;;13.68;100.00;101023.81;2751464;83;21049;-87
2022/10/27 01:36:40;;;;;;;6.25;4.35;;;;;;;13.68;100.00;101023.81;2783923;82;21005;-88
2022/10/27 01:41:07;;;;;;;6.95;3.52;;;;;;;13.69;100.00;101019.30;2790048;83;21531;-88
2022/10/27 01:45:12;;;;;;;6.53;4.87;;;;;;;13.69;100.00;101021.49;2777438;81;21033;-87
2022/10/27 01:49:14;;;;;;;3.50;2.85;;;;;;;13.69;100.00;101026.84;2780230;81;21594;-87
2022/10/27 01:53:15;;;;;;;7.08;3.72;;;;;;;13.70;100.00;101027.20;2800987;82;21083;-89
2022/10/27 01:57:40;;;;;;;2.67;2.47;;;;;;;13.69;100.00;101035.33;2786954;82;21028;-88
2022/10/27 02:01:49;;;;;;;5.87;4.12;;;;;;;13.67;100.00;101035.95;2626860;88;21090;-88
2022/10/27 02:06:21;;;;;;;8.85;4.12;;;;;;;13.50;100.00;101032.84;2709245;84;21109;-87
2022/10/27 02:10:37;;;;;;;5.72;4.55;;;;;;;13.43;100.00;101030.33;2535154;91;21174;-87
2022/10/27 02:14:40;;;;;;;6.07;3.43;;;;;;;13.37;100.00;101025.47;2642229;87;21124;-87
2022/10/27 02:18:46;;;;;;;11.48;4.62;;;;;;;13.36;100.00;101033.09;2563404;90;21582;-88
2022/10/27 02:22:51;;;;;;;9.05;4.00;;;;;;;13.36;100.00;101033.09;2662624;87;21055;-87
2022/10/27 02:27:12;;;;;;;6.07;4.67;;;;;;;13.42;100.00;101039.30;2639120;88;21107;-87
2022/10/27 02:31:16;;;;;;;3.40;3.10;;;;;;;13.49;100.00;101039.17;2647109;88;21350;-86
2022/10/27 02:35:18;;;;;;;6.15;3.60;;;;;;;13.51;100.00;101045.73;2588138;89;21076;-88
2022/10/27 02:39:20;;;;;;;9.43;4.20;;;;;;;13.47;100.00;101053.15;2672712;85;21710;-88
2022/10/27 02:43:21;;;;;;;5.30;4.75;;;;;;;13.48;100.00;101042.82;2744765;83;21072;-88
2022/10/27 02:47:23;;;;;;;7.00;5.80;;;;;;;13.52;100.00;101040.25;2781359;82;21029;-88
2022/10/27 02:51:24;;;;;;;8.90;6.37;;;;;;;13.54;100.00;101036.95;2781391;82;21035;-89
2022/10/27 02:55:25;;;;;;;12.82;7.70;;;;;;;13.51;100.00;101031.88;2791247;82;21040;-88
2022/10/27 02:59:27;;;;;;;7.42;5.90;;;;;;;13.44;100.00;101037.37;2729266;82;21010;-87
2022/10/27 03:03:28;;;;;;;8.78;6.45;;;;;;;13.38;100.00;101042.70;2812927;82;21058;-89
2022/10/27 03:07:30;;;;;;;8.43;7.05;;;;;;;13.39;100.00;101050.23;2782489;83;21076;-88
2022/10/27 03:11:31;;;;;;;9.83;7.67;;;;;;;13.39;100.00;101048.91;2792229;81;21014;-87
2022/10/27 03:15:32;;;;;;;9.33;7.03;;;;;;;13.39;100.00;101050.23;2773598;82;21007;-87
2022/10/27 03:19:34;;;;;;;12.88;7.87;;;;;;;13.39;100.00;101056.92;2786929;81;21102;-87
2022/10/27 03:23:35;;;;;;;7.92;7.00;;;;;;;13.41;100.00;101066.48;2782337;82;21042;-90
2022/10/27 03:27:39;;;;;;;13.38;5.72;;;;;;;13.42;100.00;101070.02;2806353;81;21706;-89
2022/10/27 03:31:40;;;;;;;13.05;7.25;;;;;;;13.45;100.00;101075.15;2823828;81;21533;-88
2022/10/27 03:35:41;;;;;;;8.40;5.50;;;;;;;13.50;100.00;101082.80;2794474;82;21059;-90
2022/10/27 03:39:42;;;;;;;7.55;6.35;;;;;;;13.47;100.00;101083.89;2743797;82;20982;-89
2022/10/27 03:43:44;;;;;;;7.47;6.25;;;;;;;13.45;100.00;101087.17;2763618;82;21854;-89
2022/10/27 03:47:45;;;;;;;8.80;5.00;;;;;;;13.51;100.00;101087.17;2747840;83;20999;-89
2022/10/27 03:51:46;;;;;;;12.37;6.03;;;;;;;13.53;100.00;101096.73;2801089;82;20989;-89
2022/10/27 03:55:48;;;;;;;8.05;4.30;;;;;;;13.59;100.00;101091.89;2809413;80;21570;-90
2022/10/27 03:59:49;;;;;;;6.83;5.00;;;;;;;13.65;100.00;101098.05;2842721;81;21057;-89
2022/10/27 04:03:50;;;;;;;9.03;5.35;;;;;;;13.70;100.00;101099.86;2765092;82;21030;-92
2022/10/27 04:07:52;;;;;;;8.50;5.10;;;;;;;13.79;100.00;101100.45;2799758;82;21049;-90
2022/10/27 04:11:53;;;;;;;10.32;6.12;;;;;;;13.87;100.00;101108.31;2807950;81;21011;-89
2022/10/27 04:15:59;;;;;;;7.50;4.80;;;;;;;13.91;100.00;101103.06;2814417;80;21025;-91
2022/10/27 04:20:01;;;;;;;9.75;6.25;;;;;;;13.93;100.00;101105.13;2822784;81;21048;-93
2022/10/27 04:24:02;;;;;;;5.40;4.90;;;;;;;13.95;100.00;101101.83;2858679;80;21580;-91
2022/10/27 04:28:06;;;;;;;8.83;5.95;;;;;;;13.90;100.00;101104.91;2818713;82;21539;-92
2022/10/27 04:32:07;;;;;;;10.32;5.47;;;;;;;13.74;100.00;101109.31;2799567;82;21132;-93
2022/10/27 04:36:09;;;;;;;7.20;5.33;;;;;;;13.69;100.00;101108.85;2823848;80;21640;-90
2022/10/27 04:40:11;;;;;;;9.95;5.83;;;;;;;13.69;100.00;101113.73;2774798;81;21638;-92
2022/10/27 04:44:12;;;;;;;15.95;12.40;;;;;;;13.68;100.00;101115.18;2834863;80;21555;-93
2022/10/27 04:48:13;;;;;;;6.72;4.78;;;;;;;13.65;100.00;101124.28;2789113;80;21007;-90
2022/10/27 04:52:15;;;;;;;10.00;6.03;;;;;;;13.60;100.00;101118.98;2784428;82;21019;-92
2022/10/27 04:56:17;;;;;;;7.42;5.95;;;;;;;13.54;100.00;101123.00;2769509;82;21628;-91
2022/10/27 05:00:19;;;;;;;7.47;4.90;;;;;;;13.50;100.00;101125.05;2766760;81;21110;-90
2022/10/27 05:04:20;;;;;;;11.22;5.58;;;;;;;13.43;100.00;101126.54;2805772;81;21041;-90
2022/10/27 05:08:21;;;;;;;9.08;6.05;;;;;;;13.40;100.00;101130.27;2806323;81;21035;-92
2022/10/27 05:12:23;;;;;;;7.65;5.72;;;;;;;13.38;100.00;101132.22;2793686;81;21054;-91
2022/10/27 05:16:24;;;;;;;10.98;4.40;;;;;;;13.35;100.00;101134.27;2743473;82;21040;-89
2022/10/27 05:20:26;;;;;;;9.48;5.28;;;;;;;13.31;100.00;101136.36;2806244;82;21006;-92
2022/10/27 05:24:27;;;;;;;8.15;5.50;;;;;;;13.23;100.00;101140.98;2795818;82;21039;-92
2022/10/27 05:28:29;;;;;;;7.65;6.22;;;;;;;13.13;100.00;101153.35;2792681;81;21527;-91
2022/10/27 05:32:30;;;;;;;20.62;12.30;;;;;;;13.03;100.00;101161.74;2797773;80;21045;-91
2022/10/27 05:36:31;;;;;;;130.10;72.72;;;;;;;12.83;100.00;101162.31;2789375;82;21050;-88
2022/10/27 05:40:33;;;;;;;86.97;49.65;;;;;;;12.65;100.00;101172.61;2811143;82;21600;-93
2022/10/27 05:44:34;;;;;;;72.40;36.83;;;;;;;12.52;100.00;101166.50;2773416;82;21044;-92
2022/10/27 05:48:36;;;;;;;69.12;33.70;;;;;;;12.57;100.00;101177.66;2835932;81;21046;-92
2022/10/27 05:52:37;;;;;;;29.30;16.93;;;;;;;12.67;100.00;101186.68;2813366;81;21118;-91
2022/10/27 05:56:38;;;;;;;21.60;14.80;;;;;;;12.75;100.00;101187.43;2761763;81;21056;-91
2022/10/27 06:00:40;;;;;;;16.23;9.63;;;;;;;12.84;100.00;101185.87;2750496;83;21684;-90
2022/10/27 06:04:41;;;;;;;10.35;7.10;;;;;;;12.90;100.00;101184.05;2778645;82;21179;-91
2022/10/27 06:08:43;;;;;;;11.38;6.45;;;;;;;12.97;100.00;101186.63;2803648;81;21133;-91
2022/10/27 06:12:44;;;;;;;7.12;6.37;;;;;;;12.99;100.00;101188.70;2808404;83;21548;-91
2022/10/27 06:16:45;;;;;;;7.60;5.47;;;;;;;13.03;100.00;101191.12;2767432;82;21591;-90
2022/10/27 06:20:47;;;;;;;6.95;3.90;;;;;;;12.99;100.00;101203.38;2768576;82;22129;-92
2022/10/27 06:24:48;;;;;;;4.70;4.30;;;;;;;12.99;100.00;101210.53;2792289;81;21032;-91
2022/10/27 06:28:50;;;;;;;11.90;4.85;;;;;;;13.02;100.00;101206.28;2794133;82;21037;-90
2022/10/27 06:32:51;;;;;;;5.80;4.37;;;;;;;13.15;100.00;101216.85;2809641;83;21061;-88
2022/10/27 06:36:53;;;;;;;7.40;4.50;;;;;;;13.26;100.00;101213.34;2800670;83;21593;-92
2022/10/27 06:40:54;;;;;;;8.40;6.28;;;;;;;13.40;100.00;101224.30;2784901;81;21038;-92
2022/10/27 06:44:55;;;;;;;8.28;6.17;;;;;;;13.48;100.00;101229.08;2810037;81;21069;-91
2022/10/27 06:48:57;;;;;;;9.20;6.62;;;;;;;13.59;100.00;101228.22;2746038;83;21079;-91
2022/10/27 06:53:02;;;;;;;14.35;7.50;;;;;;;13.75;100.00;101225.16;2753488;83;21087;-92
2022/10/27 06:57:03;;;;;;;10.72;7.15;;;;;;;13.95;100.00;101229.73;2788844;83;21040;-91
2022/10/27 07:01:05;;;;;;;7.70;6.28;;;;;;;14.17;100.00;101237.84;2779273;82;21074;-91
2022/10/27 07:05:08;;;;;;;8.25;6.85;;;;;;;14.40;100.00;101239.94;2788462;83;21077;-90
2022/10/27 07:09:10;;;;;;;10.93;8.00;;;;;;;14.61;100.00;101242.66;2761423;83;21093;-92
2022/10/27 07:13:11;;;;;;;8.88;5.72;;;;;;;14.87;100.00;101253.02;2774349;84;21049;-88
2022/10/27 07:17:12;;;;;;;8.28;6.30;;;;;;;15.16;100.00;101264.91;2797790;83;21036;-93
2022/10/27 07:21:15;;;;;;;10.10;6.50;;;;;;;15.42;100.00;101265.34;2776930;82;21063;-90
2022/10/27 07:25:16;;;;;;;8.40;6.50;;;;;;;15.66;100.00;101261.00;2856724;80;21039;-91
2022/10/27 07:29:17;;;;;;;11.05;7.80;;;;;;;15.93;100.00;101262.75;2839129;82;21013;-91
2022/10/27 07:33:19;;;;;;;12.47;7.08;;;;;;;16.09;100.00;101259.02;2812102;82;21563;-91
2022/10/27 07:37:20;;;;;;;11.00;8.10;;;;;;;16.22;100.00;101265.49;2821903;81;21073;-91
2022/10/27 07:41:21;;;;;;;12.00;5.97;;;;;;;16.37;100.00;101273.12;2844235;81;21037;-91
2022/10/27 07:45:25;;;;;;;9.08;6.22;;;;;;;16.42;100.00;101274.41;2771072;83;21057;-92
2022/10/27 07:49:26;;;;;;;12.05;7.28;;;;;;;16.47;100.00;101276.67;2828909;81;21544;-89
2022/10/27 07:53:27;;;;;;;14.20;9.65;;;;;;;16.59;100.00;101285.44;2771435;83;21087;-92
2022/10/27 07:57:29;;;;;;;13.10;7.30;;;;;;;16.66;100.00;101284.39;2755871;84;21017;-91
2022/10/27 08:01:30;;;;;;;13.32;10.10;;;;;;;16.77;100.00;101285.56;2762404;82;21038;-92
2022/10/27 08:05:34;;;;;;;11.57;8.83;;;;;;;16.87;100.00;101294.97;2799753;82;21033;-92
2022/10/27 08:09:35;;;;;;;17.95;8.53;;;;;;;16.90;100.00;101301.91;2791771;83;21648;-91
2022/10/27 08:13:36;;;;;;;15.63;9.45;;;;;;;16.98;100.00;101309.64;2818124;82;21009;-90
2022/10/27 08:17:39;;;;;;;20.70;7.90;;;;;;;17.07;100.00;101306.59;2789468;84;21085;-92
2022/10/27 08:21:40;;;;;;;12.33;9.00;;;;;;;17.13;100.00;101312.73;2791363;83;21018;-91
2022/10/27 08:25:42;;;;;;;14.85;8.68;;;;;;;17.28;100.00;101318.49;2807024;83;20993;-91
2022/10/27 08:29:44;;;;;;;34.90;16.23;;;;;;;17.48;100.00;101317.09;2809666;82;21135;-90
2022/10/27 08:33:45;;;;;;;12.65;8.60;;;;;;;17.66;100.00;101319.03;2818144;81;21081;-91
2022/10/27 08:37:46;;;;;;;20.08;9.90;;;;;;;17.80;100.00;101323.94;2806712;82;21049;-91
2022/10/27 08:42:15;;;;;;;13.83;8.68;;;;;;;17.88;100.00;101320.98;2796465;82;21061;-91
2022/10/27 08:46:37;;;;;;;13.15;8.80;;;;;;;17.90;100.00;101323.89;2790563;81;21047;-92
2022/10/27 08:50:42;;;;;;;11.70;9.75;;;;;;;17.95;100.00;101327.48;2804374;82;21012;-91
2022/10/27 08:54:50;;;;;;;14.10;9.08;;;;;;;17.85;100.00;101333.75;2790259;82;21001;-92
2022/10/27 08:58:52;;;;;;;12.40;9.28;;;;;;;17.82;100.00;101331.36;2775160;83;21016;-92
2022/10/27 09:03:25;;;;;;;11.48;8.23;;;;;;;17.94;100.00;101321.25;2811513;82;21053;-90
2022/10/27 09:07:40;;;;;;;12.65;8.40;;;;;;;18.05;100.00;101327.47;2804483;82;21211;-91
2022/10/27 09:12:14;;;;;;;11.87;8.50;;;;;;;18.17;100.00;101326.77;2761353;82;21551;-92
2022/10/27 09:16:48;;;;;;;14.58;8.55;;;;;;;18.27;100.00;101317.63;2755856;83;21012;-92
2022/10/27 09:20:54;;;;;;;10.10;7.87;;;;;;;18.41;100.00;101310.88;2704284;85;21023;-91
2022/10/27 09:25:01;;;;;;;;;;;;;;;18.49;100.00;101309.28;2692916;85;21024;-92
2022/10/27 09:29:09;;;;;;;11.25;7.70;;;;;;;18.54;100.00;101306.97;2692404;85;20100;-90
2022/10/27 09:33:20;;;;;;;13.93;8.38;;;;;;;18.62;100.00;101306.20;2730900;86;20989;-92
2022/10/27 09:37:21;;;;;;;18.70;8.08;;;;;;;18.68;100.00;101311.83;2699601;86;21047;-91
2022/10/27 09:41:23;;;;;;;12.80;8.48;;;;;;;18.80;100.00;101304.84;2643042;86;21106;-90
2022/10/27 09:45:27;;;;;;;8.85;6.42;;;;;;;18.82;100.00;101309.56;2693148;86;21593;-91
2022/10/27 09:49:36;;;;;;;13.75;7.90;;;;;;;18.90;100.00;101311.00;2720895;85;21131;-92
2022/10/27 09:53:46;;;;;;;13.10;6.35;;;;;;;18.90;100.00;101312.34;2636596;87;21080;-92
2022/10/27 09:57:49;;;;;;;10.23;7.05;;;;;;;19.02;100.00;101315.67;2753350;82;21031;-92
2022/10/27 10:01:56;;;;;;;12.82;8.03;;;;;;;19.05;100.00;101318.54;2813782;83;21599;-92
2022/10/27 10:06:02;;;;;;;13.87;7.53;;;;;;;19.17;100.00;101319.16;2814253;81;21020;-92
2022/10/27 10:10:23;;;;;;;8.18;6.70;;;;;;;19.29;100.00;101318.40;2820068;82;21082;-90
2022/10/27 10:14:27;;;;;;;13.62;7.12;;;;;;;19.36;100.00;101326.19;2847186;82;20983;-91
2022/10/27 10:18:29;;;;;;;25.00;10.32;;;;;;;19.47;99.02;101328.64;2750956;82;21521;-92
2022/10/27 10:22:34;;;;;;;11.05;7.37;;;;;;;19.48;100.00;101328.12;2794853;82;21049;-92
2022/10/27 10:26:35;;;;;;;14.87;9.40;;;;;;;19.45;99.19;101333.31;2792437;83;21034;-92
2022/10/27 10:30:39;;;;;;;13.90;9.05;;;;;;;19.51;98.03;101325.09;2791037;82;21539;-92
2022/10/27 10:34:42;;;;;;;14.15;7.80;;;;;;;19.53;100.00;101327.98;2776318;83;21047;-91
2022/10/27 10:38:48;;;;;;;13.50;8.73;;;;;;;19.60;99.99;101320.11;2739939;82;21006;-92
2022/10/27 10:43:03;;;;;;;9.60;7.67;;;;;;;19.53;99.03;101325.30;2791127;82;21075;-91
2022/10/27 10:47:25;;;;;;;15.50;8.43;;;;;;;19.58;99.45;101322.13;2771388;83;21001;-92
2022/10/27 10:51:30;;;;;;;12.70;8.10;;;;;;;19.71;98.51;101318.98;2761458;82;21071;-91
2022/10/27 10:55:37;;;;;;;17.95;8.98;;;;;;;19.86;97.99;101311.11;2790931;83;21080;-93
2022/10/27 10:59:42;;;;;;;18.23;8.05;;;;;;;19.93;98.41;101308.13;2795216;82;21058;-90
2022/10/27 11:03:46;;;;;;;13.90;7.80;;;;;;;19.85;98.41;101309.42;2795862;82;20992;-91
2022/10/27 11:07:50;;;;;;;13.62;9.60;;;;;;;19.94;96.81;101306.28;2784872;83;21069;-92
2022/10/27 11:11:51;;;;;;;15.45;9.30;;;;;;;19.95;96.52;101304.78;2810302;81;21026;-91
2022/10/27 11:16:03;;;;;;;13.93;9.65;;;;;;;20.07;97.47;101309.87;2793312;82;21076;-93
2022/10/27 11:20:09;;;;;;;15.03;10.40;;;;;;;20.12;97.27;101311.08;2812268;82;21075;-93
2022/10/27 11:24:30;;;;;;;14.60;8.63;;;;;;;20.17;97.08;101309.73;2819895;82;20993;-92
2022/10/27 11:28:52;;;;;;;14.05;8.45;;;;;;;20.21;96.39;101313.78;2788910;81;21543;-92
2022/10/27 11:33:17;;;;;;;15.10;9.93;;;;;;;20.29;95.87;101309.78;2795232;82;21484;-92
2022/10/27 11:37:29;;;;;;;15.15;10.05;;;;;;;20.40;96.32;101310.80;2806204;82;21081;-92
2022/10/27 11:41:48;;;;;;;22.60;11.75;;;;;;;20.45;93.19;101309.48;2796205;82;21036;-93
2022/10/27 11:46:25;;;;;;;23.60;13.25;;;;;;;20.46;93.68;101307.11;2815140;83;21029;-93
2022/10/27 11:50:31;;;;;;;15.60;10.45;;;;;;;20.61;96.52;101306.77;2792584;83;21082;-92
2022/10/27 11:54:32;;;;;;;17.37;9.50;;;;;;;20.66;93.56;101308.98;2823594;82;21045;-91
2022/10/27 11:58:57;;;;;;;12.03;10.00;;;;;;;20.68;93.15;101296.14;2807561;81;21037;-91
2022/10/27 12:03:27;;;;;;;13.45;9.43;;;;;;;20.73;93.55;101307.81;2741728;85;21081;-91
2022/10/27 12:08:09;;;;;;;12.13;7.80;;;;;;;20.71;92.23;101301.73;2791885;83;21116;-92
2022/10/27 12:12:34;;;;;;;14.55;9.10;;;;;;;20.76;92.02;101293.95;2788945;82;21084;-93
2022/10/27 12:16:50;;;;;;;18.70;9.73;;;;;;;20.75;92.38;101296.31;2804405;82;21042;-93
2022/10/27 12:20:57;;;;;;;;;;;;;;;20.76;92.61;101292.59;2800712;83;21031;-92
2022/10/27 12:25:10;;;;;;;13.22;8.35;;;;;;;20.74;90.88;101287.87;2849500;80;20096;-92
2022/10/27 12:29:14;;;;;;;11.35;7.70;;;;;;;20.78;92.43;101291.42;2783646;82;21071;-93
2022/10/27 12:33:27;;;;;;;22.05;12.50;;;;;;;20.81;92.72;101291.61;2844265;82;21038;-91
2022/10/27 12:37:35;;;;;;;15.48;10.05;;;;;;;20.80;92.73;101289.92;2847786;82;21049;-92
2022/10/27 12:42:19;;;;;;;17.67;12.80;;;;;;;20.83;92.41;101285.52;2850635;83;21096;-93
2022/10/27 12:46:41;;;;;;;16.93;8.98;;;;;;;20.84;92.15;101279.12;2831018;83;21595;-92
2022/10/27 12:50:54;;;;;;;11.68;7.53;;;;;;;20.87;91.44;101277.43;2840050;81;21113;-92
2022/10/27 12:55:44;;;;;;;18.37;11.22;;;;;;;20.87;93.05;101279.28;2815553;83;20998;-92
2022/10/27 13:00:21;;;;;;;17.80;10.50;;;;;;;20.90;91.60;101278.44;2844813;81;21026;-92
2022/10/27 13:04:49;;;;;;;19.90;9.78;;;;;;;20.91;90.65;101277.42;2817131;82;21084;-91
2022/10/27 13:09:22;;;;;;;11.53;7.37;;;;;;;20.89;88.67;101273.19;2799715;82;21031;-88
2022/10/27 13:14:14;;;;;;;10.93;6.60;;;;;;;20.91;88.80;101270.66;2781449;83;20998;-90
2022/10/27 13:18:45;;;;;;;12.05;8.03;;;;;;;20.93;92.84;101273.17;2783209;83;21029;-91
2022/10/27 13:22:54;;;;;;;12.73;6.28;;;;;;;20.95;89.30;101264.42;2694503;85;21116;-92
2022/10/27 13:27:12;;;;;;;21.50;13.43;;;;;;;21.00;90.03;101265.23;2715242;85;21062;-90
2022/10/27 13:31:21;;;;;;;16.97;8.38;;;;;;;21.01;90.49;101257.45;2690614;86;21061;-91
2022/10/27 13:35:33;;;;;;;13.85;7.08;;;;;;;21.05;89.17;101249.36;2672670;85;21058;-94
2022/10/27 13:39:43;;;;;;;11.30;7.45;;;;;;;21.08;88.43;101246.30;2687783;86;21097;-92
2022/10/27 13:43:45;;;;;;;10.95;6.35;;;;;;;21.12;87.57;101247.64;2701713;87;21140;-92
2022/10/27 13:47:58;;;;;;;10.48;6.33;;;;;;;21.17;87.24;101243.91;2690106;86;21091;-91
2022/10/27 13:52:19;;;;;;;13.13;7.08;;;;;;;21.22;87.69;101244.25;2607469;89;21048;-89
2022/10/27 13:56:38;;;;;;;8.55;7.00;;;;;;;21.25;86.75;101243.05;2655159;87;21108;-93
2022/10/27 14:01:22;;;;;;;10.82;5.95;;;;;;;21.30;87.46;101250.13;2701006;85;21086;-91
2022/10/27 14:05:45;;;;;;;10.80;7.15;;;;;;;21.35;87.88;101249.61;2700599;84;21104;-92
2022/10/27 14:09:50;;;;;;;19.80;7.28;;;;;;;21.37;88.52;101250.28;2694483;85;21050;-92
2022/10/27 14:14:05;;;;;;;10.70;6.62;;;;;;;21.35;89.26;101242.35;2683607;86;20995;-90
2022/10/27 14:18:11;;;;;;;7.80;6.72;;;;;;;21.30;88.04;101247.94;2691123;86;21581;-93
2022/10/27 14:22:24;;;;;;;11.63;7.33;;;;;;;21.21;87.08;101254.70;2665455;87;21121;-87
2022/10/27 14:26:35;;;;;;;18.80;7.17;;;;;;;21.17;87.14;101262.84;2691109;85;21497;-93
2022/10/27 14:30:36;;;;;;;9.70;6.17;;;;;;;21.12;86.90;101260.64;2767517;82;21031;-91
2022/10/27 14:34:38;;;;;;;8.58;7.37;;;;;;;21.06;86.39;101257.81;2795281;83;21623;-92
2022/10/27 14:38:45;;;;;;;36.98;23.02;;;;;;;20.96;87.42;101257.47;2785925;83;20990;-93
2022/10/27 14:42:48;;;;;;;29.60;17.42;;;;;;;20.92;87.93;101254.77;2770732;83;21566;-92
2022/10/27 14:46:51;;;;;;;20.85;13.90;;;;;;;20.83;87.64;101253.94;2790369;83;21077;-93
2022/10/27 14:50:53;;;;;;;33.92;22.85;;;;;;;20.73;87.89;101252.39;2784691;83;21070;-89
2022/10/27 14:55:35;;;;;;;24.72;17.05;;;;;;;20.62;88.83;101254.41;2799703;82;21051;-87
2022/10/27 14:59:44;;;;;;;33.33;19.12;;;;;;;20.56;89.52;101251.03;2779185;82;21075;-92
2022/10/27 15:03:45;;;;;;;19.57;13.08;;;;;;;20.44;89.79;101256.42;2793177;82;21035;-94
2022/10/27 15:07:56;;;;;;;16.93;11.75;;;;;;;20.13;92.05;101255.19;2767963;82;20997;-91
2022/10/27 15:12:06;;;;;;;15.32;10.13;;;;;;;19.96;92.76;101259.22;2798293;82;21074;-89
2022/10/27 15:16:10;;;;;;;19.02;10.50;;;;;;;19.76;93.57;101257.77;2781836;82;21043;-93
2022/10/27 15:20:16;;;;;;;10.65;8.55;;;;;;;19.61;94.87;101265.61;2779977;83;21067;-93
2022/10/27 15:24:22;;;;;;;14.05;10.72;;;;;;;19.49;95.37;101257.82;2794465;82;21107;-94
2022/10/27 15:28:33;;;;;;;11.20;9.45;;;;;;;19.31;96.09;101257.88;2790593;83;21030;-93
2022/10/27 15:32:38;;;;;;;11.65;9.83;;;;;;;19.14;96.22;101259.64;2805550;83;21551;-92
2022/10/27 15:36:40;;;;;;;15.65;11.43;;;;;;;18.80;99.19;101250.45;2794049;82;21181;-93
2022/10/27 15:40:46;;;;;;;12.78;10.85;;;;;;;18.58;98.65;101253.63;2776232;82;21052;-91
2022/10/27 15:44:48;;;;;;;16.57;12.30;;;;;;;18.41;99.79;101254.31;2780147;82;21003;-93
2022/10/27 15:49:25;;;;;;;19.75;12.23;;;;;;;18.37;100.00;101251.58;2806493;82;21042;-93
2022/10/27 15:53:27;;;;;;;63.45;47.85;;;;;;;18.36;100.00;101251.23;2795002;82;21075;-91
2022/10/27 15:57:39;;;;;;;27.45;19.23;;;;;;;18.16;100.00;101244.30;2766970;82;21024;-93
2022/10/27 16:01:46;;;;;;;22.10;14.60;;;;;;;17.94;100.00;101245.05;2782593;82;21440;-94
2022/10/27 16:05:49;;;;;;;34.00;24.87;;;;;;;17.87;100.00;101238.07;2791512;82;21015;-92
2022/10/27 16:09:50;;;;;;;35.35;25.17;;;;;;;17.64;100.00;101236.27;2787417;82;21024;-93
2022/10/27 16:13:58;;;;;;;29.40;23.12;;;;;;;17.39;100.00;101235.48;2794847;82;21020;-92
2022/10/27 16:18:00;;;;;;;32.63;24.80;;;;;;;17.20;100.00;101236.89;2810752;82;21051;-92
2022/10/27 16:22:03;;;;;;;28.10;20.68;;;;;;;16.96;100.00;101240.86;2787514;82;21007;-91
2022/10/27 16:26:05;;;;;;;20.23;16.85;;;;;;;16.84;100.00;101239.69;2800292;82;21142;-92
2022/10/27 16:30:07;;;;;;;33.45;21.55;;;;;;;16.73;100.00;101241.69;2776988;82;21065;-92
2022/10/27 16:34:19;;;;;;;28.20;21.62;;;;;;;16.65;100.00;101240.55;2744229;83;21038;-91
2022/10/27 16:38:20;;;;;;;21.60;17.05;;;;;;;16.56;100.00;101232.02;2826909;82;21598;-92
2022/10/27 16:42:22;;;;;;;30.95;18.77;;;;;;;16.43;100.00;101224.25;2818209;82;21049;-91
2022/10/27 16:46:23;;;;;;;22.27;17.07;;;;;;;16.38;100.00;101228.69;2787661;83;21039;-91
2022/10/27 16:50:25;;;;;;;54.80;41.77;;;;;;;16.48;100.00;101224.66;2765811;83;21077;-92
2022/10/27 16:54:27;;;;;;;45.95;38.08;;;;;;;16.40;100.00;101221.34;2760429;83;31552;-90
2022/10/27 16:58:35;;;;;;;43.13;34.75;;;;;;;16.25;100.00;101222.73;2768750;83;21029;-92
2022/10/27 17:02:37;;;;;;;30.35;25.45;;;;;;;16.07;100.00;101225.27;2827932;82;20987;-94
2022/10/27 17:06:38;;;;;;;25.40;19.37;;;;;;;15.91;100.00;101233.36;2802498;82;21074;-93
2022/10/27 17:10:39;;;;;;;34.92;24.63;;;;;;;15.77;100.00;101235.91;2819868;82;21693;-92
2022/10/27 17:14:40;;;;;;;40.98;32.08;;;;;;;15.75;100.00;101233.00;2771044;83;21065;-92
2022/10/27 17:18:42;;;;;;;45.90;36.42;;;;;;;15.77;100.00;101235.05;2782175;82;21026;-92
2022/10/27 17:22:47;;;;;;;39.73;30.15;;;;;;;15.64;100.00;101233.95;2736286;83;21038;-91
2022/10/27 17:26:48;;;;;;;33.08;25.77;;;;;;;15.58;100.00;101235.84;2780785;82;21176;-90
2022/10/27 17:30:52;;;;;;;32.05;25.80;;;;;;;15.55;100.00;101235.14;2843541;81;21582;-91
2022/10/27 17:34:53;;;;;;;46.00;30.75;;;;;;;15.45;100.00;101235.57;2797055;82;21059;-92
2022/10/27 17:38:55;;;;;;;49.10;33.18;;;;;;;15.35;100.00;101240.06;2796425;83;21086;-91
2022/10/27 17:42:56;;;;;;;46.88;29.67;;;;;;;15.20;100.00;101240.41;2794739;82;21047;-91
2022/10/27 17:46:57;;;;;;;37.48;28.60;;;;;;;15.16;100.00;101244.34;2783817;82;21708;-90
2022/10/27 17:51:15;;;;;;;38.20;30.35;;;;;;;15.14;100.00;101249.81;2779065;82;21132;-92
2022/10/27 17:55:19;;;;;;;47.13;28.98;;;;;;;15.14;100.00;101250.32;2791398;83;20997;-92
2022/10/27 17:59:21;;;;;;;41.23;27.93;;;;;;;15.26;100.00;101258.62;2744949;83;21040;-93
2022/10/27 18:03:23;;;;;;;39.08;28.00;;;;;;;15.36;100.00;101263.20;2780782;82;21042;-91
2022/10/27 18:07:24;;;;;;;38.85;28.60;;;;;;;15.47;100.00;101259.08;2769296;84;21041;-91
2022/10/27 18:11:30;;;;;;;40.28;30.70;;;;;;;15.52;100.00;101267.55;2771125;83;21048;-91
2022/10/27 18:15:34;;;;;;;44.58;31.90;;;;;;;15.43;100.00;101261.67;2772173;83;22019;-91
2022/10/27 18:19:36;;;;;;;45.78;32.58;;;;;;;15.39;100.00;101264.27;2772352;83;21041;-91
2022/10/27 18:23:37;;;;;;;45.30;32.55;;;;;;;15.40;100.00;101266.80;2731958;82;21085;-90
2022/10/27 18:27:38;;;;;;;48.08;36.13;;;;;;;15.44;100.00;101271.41;2775688;82;21588;-91
2022/10/27 18:31:41;;;;;;;61.77;39.90;;;;;;;15.41;100.00;101265.81;2793693;82;21053;-88
2022/10/27 18:35:42;;;;;;;43.13;31.37;;;;;;;15.35;100.00;101265.02;2762538;83;20995;-89
2022/10/27 18:39:44;;;;;;;83.37;52.62;;;;;;;15.33;100.00;101263.44;2790296;82;21561;-87
2022/10/27 18:43:50;;;;;;;68.05;45.28;;;;;;;15.27;100.00;101257.64;2795554;82;21037;-89
2022/10/27 18:47:51;;;;;;;52.45;31.52;;;;;;;15.30;100.00;101252.52;2793248;82;21003;-88